createdAt,value
2018-08-19T00:00:56.867Z,19.40
2018-08-19T00:03:24.518Z,19.40
2018-08-19T00:05:52.321Z,19.40
2018-08-19T00:08:19.867Z,19.30
2018-08-19T00:11:06.947Z,19.30
2018-08-19T00:13:35.606Z,19.30
2018-08-19T00:16:03.637Z,19.30
2018-08-19T00:18:31.300Z,19.30
2018-08-19T00:20:59.823Z,19.30
2018-08-19T00:23:34.753Z,19.30
2018-08-19T00:26:02.798Z,19.20
2018-08-19T00:28:30.835Z,19.20
2018-08-19T00:30:58.481Z,19.20
2018-08-19T00:33:26.051Z,19.20
2018-08-19T00:35:53.633Z,19.10
2018-08-19T00:38:21.584Z,19.10
2018-08-19T00:40:49.133Z,19.10
2018-08-19T00:43:16.667Z,19.10
2018-08-19T00:45:44.231Z,19.10
2018-08-19T00:48:12.207Z,19.10
2018-08-19T00:50:40.162Z,19.00
2018-08-19T00:53:08.805Z,19.00
2018-08-19T00:55:42.035Z,19.00
2018-08-19T00:58:18.165Z,18.90
2018-08-19T01:00:45.789Z,19.00
2018-08-19T01:03:13.603Z,18.90
2018-08-19T01:05:41.173Z,18.80
2018-08-19T01:08:09.904Z,18.80
2018-08-19T01:10:37.768Z,18.80
2018-08-19T01:13:05.423Z,18.80
2018-08-19T01:15:32.973Z,18.70
2018-08-19T01:18:00.639Z,18.70
2018-08-19T01:20:29.218Z,18.70
2018-08-19T01:22:56.773Z,18.70
2018-08-19T01:25:24.401Z,18.60
2018-08-19T01:27:52.113Z,18.60
2018-08-19T01:30:22.067Z,18.60
2018-08-19T01:32:49.665Z,18.60
2018-08-19T01:35:17.669Z,18.60
2018-08-19T01:37:45.324Z,18.60
2018-08-19T01:40:16.599Z,18.60
2018-08-19T01:42:44.761Z,18.60
2018-08-19T01:45:12.408Z,18.50
2018-08-19T01:47:39.984Z,18.50
2018-08-19T01:50:11.110Z,18.40
2018-08-19T01:52:39.104Z,18.40
2018-08-19T01:55:07.100Z,18.40
2018-08-19T01:57:40.264Z,18.40
2018-08-19T02:00:08.962Z,18.30
2018-08-19T02:02:51.241Z,18.40
2018-08-19T02:05:19.200Z,18.40
2018-08-19T02:07:46.828Z,18.30
2018-08-19T02:10:14.474Z,18.40
2018-08-19T02:12:42.008Z,18.40
2018-08-19T02:15:10.104Z,18.40
2018-08-19T02:17:42.881Z,18.30
2018-08-19T02:20:10.804Z,18.30
2018-08-19T02:22:39.142Z,18.30
2018-08-19T02:25:06.910Z,18.20
2018-08-19T02:27:34.461Z,18.30
2018-08-19T02:30:01.979Z,18.20
2018-08-19T02:32:30.340Z,18.20
2018-08-19T02:34:57.892Z,18.10
2018-08-19T02:37:25.451Z,18.10
2018-08-19T02:39:53.024Z,18.10
2018-08-19T02:42:26.721Z,18.10
2018-08-19T02:45:00.782Z,18.10
2018-08-19T02:47:28.539Z,18.00
2018-08-19T02:49:56.138Z,18.00
2018-08-19T02:52:27.435Z,18.00
2018-08-19T02:54:56.325Z,18.00
2018-08-19T02:57:24.053Z,18.00
2018-08-19T02:59:51.665Z,18.00
2018-08-19T03:02:26.520Z,18.00
2018-08-19T03:04:54.953Z,18.00
2018-08-19T03:07:24.857Z,18.00
2018-08-19T03:09:58.127Z,18.00
2018-08-19T03:12:26.880Z,18.00
2018-08-19T03:14:55.052Z,18.00
2018-08-19T03:17:23.234Z,18.00
2018-08-19T03:19:51.854Z,18.00
2018-08-19T03:22:19.511Z,18.00
2018-08-19T03:24:47.075Z,18.00
2018-08-19T03:27:14.615Z,18.00
2018-08-19T03:29:47.630Z,18.00
2018-08-19T03:32:15.151Z,18.00
2018-08-19T03:34:42.714Z,18.00
2018-08-19T03:37:11.716Z,17.90
2018-08-19T03:39:39.249Z,17.90
2018-08-19T03:42:06.786Z,17.90
2018-08-19T03:44:34.338Z,17.90
2018-08-19T03:47:05.356Z,17.90
2018-08-19T03:49:32.933Z,17.90
2018-08-19T03:52:01.321Z,17.80
2018-08-19T03:54:29.618Z,17.80
2018-08-19T03:56:57.184Z,17.70
2018-08-19T03:59:24.736Z,17.60
2018-08-19T04:01:52.294Z,17.60
2018-08-19T04:04:19.841Z,17.60
2018-08-19T04:06:48.421Z,17.60
2018-08-19T04:09:15.943Z,17.60
2018-08-19T04:11:44.582Z,17.60
2018-08-19T04:14:24.938Z,17.60
2018-08-19T04:16:52.985Z,17.60
2018-08-19T04:19:22.759Z,17.60
2018-08-19T04:21:50.312Z,17.60
2018-08-19T04:24:17.824Z,17.60
2018-08-19T04:26:45.390Z,17.60
2018-08-19T04:29:31.931Z,17.60
2018-08-19T04:32:00.203Z,17.60
2018-08-19T04:34:27.735Z,17.60
2018-08-19T04:36:55.349Z,17.60
2018-08-19T04:39:22.915Z,17.70
2018-08-19T04:41:50.446Z,17.90
2018-08-19T04:44:17.997Z,18.00
2018-08-19T04:46:45.554Z,18.00
2018-08-19T04:49:14.117Z,18.10
2018-08-19T04:51:41.663Z,18.10
2018-08-19T04:54:09.219Z,18.10
2018-08-19T04:56:36.754Z,18.20
2018-08-19T04:59:04.483Z,18.20
2018-08-19T05:01:32.025Z,18.40
2018-08-19T05:03:59.597Z,18.50
2018-08-19T05:06:27.133Z,18.50
2018-08-19T05:08:54.683Z,18.50
2018-08-19T05:11:22.322Z,18.50
2018-08-19T05:13:49.863Z,18.50
2018-08-19T05:16:17.425Z,18.60
2018-08-19T05:18:49.842Z,18.70
2018-08-19T05:21:17.845Z,18.80
2018-08-19T05:23:46.294Z,18.80
2018-08-19T05:26:14.144Z,18.90
2018-08-19T05:28:44.420Z,18.90
2018-08-19T05:31:11.983Z,18.90
2018-08-19T05:33:41.429Z,18.90
2018-08-19T05:36:09.018Z,18.90
2018-08-19T05:38:36.554Z,18.90
2018-08-19T05:41:04.229Z,18.90
2018-08-19T05:43:31.838Z,19.10
2018-08-19T05:46:00.798Z,19.10
2018-08-19T05:48:29.178Z,19.20
2018-08-19T05:50:57.081Z,19.20
2018-08-19T05:53:24.677Z,19.20
2018-08-19T05:55:52.560Z,19.30
2018-08-19T05:58:20.346Z,19.40
2018-08-19T06:00:59.959Z,19.40
2018-08-19T06:03:27.634Z,19.50
2018-08-19T06:05:55.319Z,19.60
2018-08-19T06:08:22.866Z,19.70
2018-08-19T06:10:50.466Z,19.60
2018-08-19T06:13:17.982Z,19.70
2018-08-19T06:15:45.654Z,19.70
2018-08-19T06:18:13.256Z,19.70
2018-08-19T06:20:40.803Z,19.70
2018-08-19T06:23:08.342Z,19.80
2018-08-19T06:25:35.892Z,19.90
2018-08-19T06:28:03.540Z,20.00
2018-08-19T06:30:31.169Z,20.10
2018-08-19T06:32:59.342Z,20.20
2018-08-19T06:35:26.917Z,20.30
2018-08-19T06:37:54.478Z,20.40
2018-08-19T06:40:23.142Z,20.50
2018-08-19T06:42:50.713Z,20.60
2018-08-19T06:45:18.292Z,20.70
2018-08-19T06:47:45.865Z,20.70
2018-08-19T06:50:25.128Z,20.80
2018-08-19T06:52:53.536Z,20.90
2018-08-19T06:55:21.311Z,21.00
2018-08-19T06:57:48.976Z,21.10
2018-08-19T07:00:35.227Z,21.10
2018-08-19T07:03:04.253Z,21.20
2018-08-19T07:05:32.541Z,21.30
2018-08-19T07:08:01.178Z,21.30
2018-08-19T07:10:44.568Z,21.40
2018-08-19T07:13:14.373Z,21.50
2018-08-19T07:15:43.073Z,21.60
2018-08-19T07:18:12.734Z,21.60
2018-08-19T07:20:41.107Z,21.70
2018-08-19T07:23:09.313Z,21.80
2018-08-19T07:25:38.818Z,21.90
2018-08-19T07:28:07.681Z,22.00
2018-08-19T07:30:35.217Z,22.10
2018-08-19T07:33:02.861Z,22.20
2018-08-19T07:35:31.385Z,22.30
2018-08-19T07:37:59.644Z,22.30
2018-08-19T07:40:27.173Z,22.40
2018-08-19T07:42:54.785Z,22.50
2018-08-19T07:45:22.327Z,22.60
2018-08-19T07:47:50.085Z,22.70
2018-08-19T07:50:17.607Z,22.70
2018-08-19T07:52:45.165Z,22.80
2018-08-19T07:55:12.763Z,22.90
2018-08-19T07:57:40.853Z,22.90
2018-08-19T08:00:09.039Z,23.00
2018-08-19T08:02:36.691Z,23.10
2018-08-19T08:05:05.061Z,23.20
2018-08-19T08:07:32.794Z,23.20
2018-08-19T08:10:01.067Z,23.30
2018-08-19T08:12:29.626Z,23.40
2018-08-19T08:14:57.299Z,23.50
2018-08-19T08:17:26.094Z,23.60
2018-08-19T08:20:01.296Z,23.60
2018-08-19T08:22:29.663Z,23.70
2018-08-19T08:24:57.543Z,23.70
2018-08-19T08:27:25.178Z,23.80
2018-08-19T08:29:52.942Z,23.90
2018-08-19T08:32:20.542Z,24.00
2018-08-19T08:34:48.127Z,24.10
2018-08-19T08:37:15.736Z,24.20
2018-08-19T08:39:43.308Z,24.30
2018-08-19T08:42:10.868Z,24.40
2018-08-19T08:44:38.489Z,24.50
2018-08-19T08:47:08.714Z,24.60
2018-08-19T08:49:42.034Z,24.70
2018-08-19T08:52:15.986Z,24.80
2018-08-19T08:54:50.266Z,24.90
2018-08-19T08:57:18.982Z,25.00
2018-08-19T08:59:46.617Z,25.10
2018-08-19T09:02:14.188Z,25.10
2018-08-19T09:04:41.802Z,25.30
2018-08-19T09:07:09.504Z,25.40
2018-08-19T09:09:38.332Z,25.50
2018-08-19T09:12:05.944Z,25.70
2018-08-19T09:14:33.579Z,25.80
2018-08-19T09:17:01.302Z,25.90
2018-08-19T09:19:29.619Z,26.00
2018-08-19T09:21:57.232Z,26.10
2018-08-19T09:24:24.810Z,26.20
2018-08-19T09:26:52.488Z,26.30
2018-08-19T09:29:20.016Z,26.40
2018-08-19T09:31:47.670Z,26.50
2018-08-19T09:34:15.211Z,26.50
2018-08-19T09:36:42.788Z,26.70
2018-08-19T09:39:11.419Z,26.80
2018-08-19T09:41:39.014Z,26.90
2018-08-19T09:44:06.674Z,27.00
2018-08-19T09:46:34.233Z,27.10
2018-08-19T09:49:01.832Z,27.10
2018-08-19T09:51:29.924Z,27.30
2018-08-19T09:53:57.506Z,27.40
2018-08-19T09:56:30.833Z,27.50
2018-08-19T09:59:04.736Z,27.60
2018-08-19T10:01:38.086Z,27.80
2018-08-19T10:04:25.344Z,27.90
2018-08-19T10:07:01.581Z,28.10
2018-08-19T10:09:29.966Z,28.30
2018-08-19T10:11:57.561Z,28.50
2018-08-19T10:14:25.133Z,28.70
2018-08-19T10:16:52.765Z,28.90
2018-08-19T10:19:21.541Z,29.10
2018-08-19T10:21:49.113Z,29.40
2018-08-19T10:24:23.035Z,29.60
2018-08-19T10:26:50.677Z,29.80
2018-08-19T10:29:18.281Z,30.00
2018-08-19T10:31:52.022Z,30.40
2018-08-19T10:34:23.691Z,30.70
2018-08-19T10:36:51.223Z,31.10
2018-08-19T10:39:18.856Z,31.20
2018-08-19T10:41:46.425Z,31.30
2018-08-19T10:44:13.950Z,31.50
2018-08-19T10:46:42.455Z,31.80
2018-08-19T10:49:10.441Z,32.20
2018-08-19T10:51:40.474Z,32.40
2018-08-19T10:54:08.062Z,32.60
2018-08-19T10:56:35.721Z,32.60
2018-08-19T10:59:03.420Z,32.70
2018-08-19T11:01:31.010Z,32.90
2018-08-19T11:03:59.506Z,33.20
2018-08-19T11:06:27.130Z,33.40
2018-08-19T11:08:56.809Z,33.60
2018-08-19T11:11:26.194Z,33.80
2018-08-19T11:13:53.761Z,34.00
2018-08-19T11:16:21.346Z,34.20
2018-08-19T11:18:49.883Z,34.40
2018-08-19T11:21:25.099Z,34.60
2018-08-19T11:23:52.968Z,34.50
2018-08-19T11:26:20.593Z,33.80
2018-08-19T11:28:54.257Z,32.90
2018-08-19T11:31:27.733Z,32.30
2018-08-19T11:33:56.851Z,32.20
2018-08-19T11:36:31.679Z,32.60
2018-08-19T11:39:00.266Z,33.20
2018-08-19T11:48:17.228Z,34.40
2018-08-19T11:50:45.041Z,35.30
2018-08-19T11:53:12.596Z,35.50
2018-08-19T11:55:40.344Z,35.90
2018-08-19T11:58:07.962Z,36.30
2018-08-19T12:00:43.478Z,36.70
2018-08-19T12:03:11.106Z,37.00
2018-08-19T12:05:38.665Z,37.10
2018-08-19T12:08:06.561Z,37.00
2018-08-19T12:10:34.094Z,36.90
2018-08-19T12:13:01.684Z,36.40
2018-08-19T12:15:29.935Z,35.90
2018-08-19T12:17:57.506Z,35.90
2018-08-19T12:20:33.590Z,35.80
2018-08-19T12:23:01.149Z,35.30
2018-08-19T12:25:29.708Z,34.50
2018-08-19T12:27:57.251Z,34.10
2018-08-19T12:30:24.793Z,34.40
2018-08-19T12:33:02.447Z,34.90
2018-08-19T12:35:30.816Z,35.50
2018-08-19T12:37:59.016Z,36.00
2018-08-19T12:40:26.672Z,36.40
2018-08-19T12:42:54.313Z,36.80
2018-08-19T12:45:22.845Z,37.20
2018-08-19T12:47:50.408Z,37.10
2018-08-19T12:50:18.050Z,36.70
2018-08-19T12:52:45.672Z,36.50
2018-08-19T12:55:14.891Z,36.70
2018-08-19T12:57:43.001Z,37.00
2018-08-19T13:00:15.771Z,37.50
2018-08-19T13:02:44.686Z,37.90
2018-08-19T13:05:13.399Z,38.30
2018-08-19T13:07:40.939Z,38.50
2018-08-19T13:10:08.685Z,38.50
2018-08-19T13:12:41.982Z,38.40
2018-08-19T13:15:09.771Z,38.50
2018-08-19T13:17:37.497Z,38.90
2018-08-19T13:20:07.012Z,39.00
2018-08-19T13:22:39.544Z,39.00
2018-08-19T13:25:07.138Z,39.00
2018-08-19T13:27:34.710Z,38.70
2018-08-19T13:30:02.312Z,37.90
2018-08-19T13:32:30.851Z,37.10
2018-08-19T13:34:58.504Z,36.90
2018-08-19T13:37:26.110Z,37.10
2018-08-19T13:39:53.678Z,37.50
2018-08-19T13:42:21.356Z,38.10
2018-08-19T13:44:49.076Z,38.50
2018-08-19T13:47:16.646Z,38.70
2018-08-19T13:49:44.224Z,38.70
2018-08-19T13:52:11.794Z,38.50
2018-08-19T13:55:45.955Z,38.10
2018-08-19T13:58:13.525Z,37.20
2018-08-19T14:00:41.086Z,35.80
2018-08-19T14:03:16.065Z,34.90
2018-08-19T14:05:43.643Z,34.60
2018-08-19T14:08:11.192Z,34.50
2018-08-19T14:10:38.734Z,34.60
2018-08-19T14:13:06.288Z,35.10
2018-08-19T14:15:33.866Z,35.60
2018-08-19T14:18:01.462Z,36.40
2018-08-19T14:20:29.104Z,37.00
2018-08-19T14:22:56.704Z,37.60
2018-08-19T14:25:24.287Z,38.00
2018-08-19T14:27:51.848Z,38.30
2018-08-19T14:30:19.498Z,38.30
2018-08-19T14:32:47.777Z,38.40
2018-08-19T14:35:15.393Z,38.40
2018-08-19T14:37:43.036Z,38.70
2018-08-19T14:40:13.082Z,38.90
2018-08-19T14:42:40.632Z,38.90
2018-08-19T14:45:08.243Z,39.00
2018-08-19T14:47:35.843Z,39.00
2018-08-19T14:50:07.257Z,38.90
2018-08-19T14:52:34.856Z,38.90
2018-08-19T14:55:02.477Z,39.00
2018-08-19T14:57:30.638Z,39.20
2018-08-19T14:59:58.797Z,39.20
2018-08-19T15:02:26.420Z,39.20
2018-08-19T15:04:53.967Z,39.20
2018-08-19T15:07:21.518Z,39.30
2018-08-19T15:09:51.698Z,39.30
2018-08-19T15:12:21.470Z,39.30
2018-08-19T15:14:49.636Z,39.30
2018-08-19T15:17:17.222Z,39.30
2018-08-19T15:19:47.722Z,39.30
2018-08-19T15:22:15.670Z,39.20
2018-08-19T15:24:43.354Z,39.20
2018-08-19T15:27:10.942Z,39.20
2018-08-19T15:29:40.561Z,39.20
2018-08-19T15:32:08.355Z,39.20
2018-08-19T15:34:35.952Z,39.20
2018-08-19T15:37:03.641Z,39.30
2018-08-19T15:39:31.326Z,39.20
2018-08-19T15:41:59.625Z,39.10
2018-08-19T15:44:27.253Z,39.20
2018-08-19T15:46:54.826Z,39.20
2018-08-19T15:49:23.236Z,39.10
2018-08-19T15:51:50.981Z,39.20
2018-08-19T15:54:18.616Z,39.20
2018-08-19T15:56:46.209Z,39.20
2018-08-19T15:59:13.766Z,39.20
2018-08-19T16:01:41.368Z,39.00
2018-08-19T16:04:15.356Z,38.90
2018-08-19T16:06:44.654Z,38.90
2018-08-19T16:09:13.282Z,38.80
2018-08-19T16:11:41.096Z,38.60
2018-08-19T16:14:15.122Z,38.40
2018-08-19T16:16:42.718Z,38.30
2018-08-19T16:19:10.388Z,38.30
2018-08-19T16:21:37.948Z,38.10
2018-08-19T16:24:05.864Z,38.00
2018-08-19T16:26:33.454Z,37.70
2018-08-19T16:29:01.077Z,37.50
2018-08-19T16:31:29.184Z,37.40
2018-08-19T16:33:56.906Z,37.20
2018-08-19T16:36:24.488Z,37.00
2018-08-19T16:38:52.472Z,36.90
2018-08-19T16:41:20.208Z,37.00
2018-08-19T16:43:47.775Z,36.90
2018-08-19T16:46:15.393Z,36.90
2018-08-19T16:48:42.976Z,36.80
2018-08-19T16:51:10.553Z,36.80
2018-08-19T16:53:38.157Z,36.60
2018-08-19T16:56:05.973Z,36.50
2018-08-19T16:58:33.550Z,36.30
2018-08-19T17:01:01.134Z,36.20
2018-08-19T17:03:35.121Z,35.90
2018-08-19T17:06:03.253Z,35.60
2018-08-19T17:08:30.835Z,35.30
2018-08-19T17:10:58.502Z,35.20
2018-08-19T17:13:26.049Z,35.00
2018-08-19T17:15:53.775Z,34.80
2018-08-19T17:18:21.379Z,34.70
2018-08-19T17:20:48.989Z,34.50
2018-08-19T17:23:19.847Z,34.20
2018-08-19T17:25:47.491Z,34.00
2018-08-19T17:28:21.147Z,33.70
2018-08-19T17:30:49.963Z,33.40
2018-08-19T17:33:17.566Z,32.90
2018-08-19T17:35:47.123Z,32.50
2018-08-19T17:38:15.983Z,32.20
2018-08-19T17:40:43.591Z,31.90
2018-08-19T17:43:11.261Z,31.50
2018-08-19T17:45:38.941Z,31.20
2018-08-19T17:48:07.597Z,30.90
2018-08-19T17:50:37.147Z,30.70
2018-08-19T17:53:05.047Z,30.40
2018-08-19T17:55:32.661Z,30.20
2018-08-19T17:58:00.513Z,30.00
2018-08-19T18:00:28.112Z,29.70
2018-08-19T18:02:56.273Z,29.50
2018-08-19T18:05:23.985Z,29.30
2018-08-19T18:07:52.796Z,29.00
2018-08-19T18:10:20.414Z,28.80
2018-08-19T18:12:48.452Z,28.50
2018-08-19T18:15:16.154Z,28.30
2018-08-19T18:17:58.088Z,28.10
2018-08-19T18:20:29.434Z,27.90
2018-08-19T18:22:57.531Z,27.60
2018-08-19T18:25:25.429Z,27.40
2018-08-19T18:27:53.104Z,27.20
2018-08-19T18:30:22.930Z,27.00
2018-08-19T18:32:50.826Z,26.90
2018-08-19T18:35:19.066Z,26.70
2018-08-19T18:37:46.748Z,26.60
2018-08-19T18:40:32.956Z,26.50
2018-08-19T18:43:02.090Z,26.30
2018-08-19T18:45:31.048Z,26.20
2018-08-19T18:48:01.234Z,26.10
2018-08-19T18:50:29.400Z,26.00
2018-08-19T18:52:57.042Z,25.90
2018-08-19T18:55:24.986Z,25.80
2018-08-19T18:57:54.769Z,25.70
2018-08-19T19:00:24.661Z,25.60
2018-08-19T19:02:55.697Z,25.50
2018-08-19T19:05:33.264Z,25.30
2018-08-19T19:08:05.954Z,25.20
2018-08-19T19:10:33.573Z,25.10
2018-08-19T19:13:01.683Z,25.00
2018-08-19T19:15:33.323Z,24.90
2018-08-19T19:18:01.224Z,24.90
2018-08-19T19:20:30.189Z,24.70
2018-08-19T19:23:02.684Z,24.70
2018-08-19T19:25:37.948Z,24.60
2018-08-19T19:28:06.161Z,24.50
2018-08-19T19:30:34.404Z,24.40
2018-08-19T19:33:12.439Z,24.30
2018-08-19T19:35:40.216Z,24.30
2018-08-19T19:38:08.394Z,24.10
2018-08-19T19:40:36.236Z,24.00
2018-08-19T19:43:04.591Z,24.00
2018-08-19T19:45:55.049Z,23.90
2018-08-19T19:48:22.872Z,23.80
2018-08-19T19:50:50.982Z,23.70
2018-08-19T19:53:18.704Z,23.60
2018-08-19T19:55:46.315Z,23.60
2018-08-19T19:58:14.082Z,23.50
2018-08-19T20:00:52.909Z,23.50
2018-08-19T20:03:21.181Z,23.40
2018-08-19T20:05:48.840Z,23.40
2018-08-19T20:08:16.656Z,23.30
2018-08-19T20:10:44.324Z,23.30
2018-08-19T20:13:11.963Z,23.10
2018-08-19T20:15:39.664Z,23.10
2018-08-19T20:18:09.115Z,23.00
2018-08-19T20:20:37.869Z,22.90
2018-08-19T20:23:10.648Z,22.80
2018-08-19T20:25:39.020Z,22.80
2018-08-19T20:28:08.990Z,22.70
2018-08-19T20:30:37.904Z,22.70
2018-08-19T20:33:08.751Z,22.60
2018-08-19T20:35:36.364Z,22.60
2018-08-19T20:38:03.944Z,22.60
2018-08-19T20:40:31.574Z,22.50
2018-08-19T20:43:00.869Z,22.40
2018-08-19T20:45:28.502Z,22.30
2018-08-19T20:47:56.067Z,22.30
2018-08-19T20:50:24.290Z,22.20
2018-08-19T20:52:51.942Z,22.10
2018-08-19T20:55:19.512Z,22.00
2018-08-19T20:57:47.070Z,21.90
2018-08-19T21:00:14.758Z,21.90
2018-08-19T21:02:42.504Z,21.80
2018-08-19T21:05:10.524Z,21.80
2018-08-19T21:07:38.244Z,21.70
2018-08-19T21:10:07.041Z,21.70
2018-08-19T21:12:34.942Z,21.70
2018-08-19T21:15:02.540Z,21.70
2018-08-19T21:17:31.202Z,21.70
2018-08-19T21:19:59.596Z,21.60
2018-08-19T21:22:27.233Z,21.60
2018-08-19T21:24:54.787Z,21.60
2018-08-19T21:27:22.326Z,21.60
2018-08-19T21:29:49.912Z,21.60
2018-08-19T21:32:17.622Z,21.60
2018-08-19T21:34:45.720Z,21.60
2018-08-19T21:37:16.344Z,21.60
2018-08-19T21:39:44.218Z,21.60
2018-08-19T21:42:12.121Z,21.50
2018-08-19T21:44:39.673Z,21.50
2018-08-19T21:47:07.192Z,21.50
2018-08-19T21:49:34.931Z,21.50
2018-08-19T21:52:02.499Z,21.50
2018-08-19T21:54:30.816Z,21.40
2018-08-19T21:56:59.052Z,21.40
2018-08-19T21:59:26.623Z,21.40
2018-08-19T22:01:57.117Z,21.30
2018-08-19T22:04:24.828Z,21.30
2018-08-19T22:06:52.435Z,21.20
2018-08-19T22:09:34.170Z,21.20
2018-08-19T22:12:02.290Z,21.20
2018-08-19T22:14:31.127Z,21.20
2018-08-19T22:17:04.362Z,21.10
2018-08-19T22:19:32.186Z,21.10
2018-08-19T22:22:00.818Z,21.10
2018-08-19T22:24:28.896Z,21.10
2018-08-19T22:26:57.954Z,21.10
2018-08-19T22:29:25.502Z,21.10
2018-08-19T22:31:53.197Z,21.00
2018-08-19T22:34:20.732Z,21.00
2018-08-19T22:36:48.308Z,21.00
2018-08-19T22:39:17.202Z,20.90
2018-08-19T22:41:47.100Z,20.90
2018-08-19T22:44:14.758Z,21.00
2018-08-19T22:46:42.313Z,21.00
2018-08-19T22:49:09.854Z,20.90
2018-08-19T22:51:37.413Z,20.90
2018-08-19T22:54:04.961Z,20.90
2018-08-19T22:56:32.507Z,20.90
2018-08-19T22:59:00.762Z,20.90
2018-08-19T23:01:33.963Z,20.90
2018-08-19T23:04:02.255Z,20.80
2018-08-19T23:06:30.968Z,20.80
2018-08-19T23:08:58.922Z,20.80
2018-08-19T23:11:34.557Z,20.80
2018-08-19T23:14:13.587Z,20.70
2018-08-19T23:16:41.261Z,20.70
2018-08-19T23:19:08.805Z,20.60
2018-08-19T23:21:36.370Z,20.50
2018-08-19T23:24:04.119Z,20.60
2018-08-19T23:26:31.695Z,20.50
2018-08-19T23:28:59.590Z,20.50
2018-08-19T23:31:27.117Z,20.50
2018-08-19T23:33:54.669Z,20.60
2018-08-19T23:36:22.195Z,20.60
2018-08-19T23:38:49.723Z,20.60
2018-08-19T23:41:17.277Z,20.50
2018-08-19T23:43:44.859Z,20.50
2018-08-19T23:46:12.447Z,20.60
2018-08-19T23:48:39.972Z,20.60
2018-08-19T23:51:10.698Z,20.60
2018-08-19T23:53:38.306Z,20.60
2018-08-19T23:56:05.901Z,20.60
2018-08-19T23:58:33.433Z,20.60
